Accueil
METAR-TAF:

METAR-TAF

Aéroports :

Aéroport de Metz-Nancy-Lorraine

Metz-Nancy-Lorraine, France

latitude: 48-59N, longitude: 006-15E, altitude: 264 m

Observation

Le bulletin a été fait il y a 28 minutes, à 12:00 UTC
Vent 3 kt de est/sud-est, variant entre est/nord-est et sud
Température 26°C
Humidité 39%
Pression 1018 hPa
Visibilité 10 km ou plus
pas de nuages en-dessous de 1500 mètres et pas de cumulonimbus.

METAR: LFJL 181200Z AUTO 11003KT 070V190 CAVOK 26/11 Q1018

Heure: 14:28 (12:28 UTC)

Prévision

Le bulletin a été fait il y a 1 heure et 28 minutes, à 11:00 UTC
Prévision valable du 18 à 12 UTC au 19 à 12 UTC
Vent 6 kt de nord/nord-est
Visibilité 10 km ou plus
pas de nuages en-dessous de 1500 mètres et pas de cumulonimbus.

TAF: LFJL 181100Z 1812/1912 03006KT CAVOK

Observations et prévisions météorologiques de plus de 4000 aéroports (messages METAR et TAF).

Les stations disponibles sont représentées par des disques jaunes et rouges sur la carte.

Passer la souris dessus pour voir le nom de la station.

Cliquer dessus pour voir les observations et prévisions météorologiques.

Pour changer de carte: cliquez sur les boutons verts avec une croix noire pour zoomer, sur le bouton vert avec un tiret pour effectuer un zoom arrière, ou sur les flèches vertes pour les cartes adjacentes.


METAR-TAF: